createdAt,value
2017-10-07T00:01:07.687Z,4.77
2017-10-07T00:03:34.330Z,6.53
2017-10-07T00:06:00.962Z,4.50
2017-10-07T00:08:27.602Z,3.77
2017-10-07T00:10:54.223Z,3.87
2017-10-07T00:13:20.868Z,4.47
2017-10-07T00:15:47.486Z,4.33
2017-10-07T00:18:14.098Z,4.53
2017-10-07T00:20:40.738Z,4.43
2017-10-07T00:23:07.371Z,4.70
2017-10-07T00:25:34.007Z,4.37
2017-10-07T00:28:00.643Z,5.97
2017-10-07T00:30:27.258Z,5.80
2017-10-07T00:32:53.907Z,5.30
2017-10-07T00:35:20.532Z,5.63
2017-10-07T00:37:47.167Z,10.20
2017-10-07T00:40:13.775Z,9.03
2017-10-07T00:42:40.397Z,10.30
2017-10-07T00:45:07.036Z,9.53
2017-10-07T00:47:33.646Z,10.33
2017-10-07T00:50:00.292Z,8.17
2017-10-07T00:52:26.937Z,4.63
2017-10-07T00:54:53.561Z,4.60
2017-10-07T00:57:20.185Z,5.47
2017-10-07T00:59:46.838Z,3.23
2017-10-07T01:02:13.447Z,4.20
2017-10-07T01:04:40.100Z,5.13
2017-10-07T01:07:06.710Z,6.13
2017-10-07T01:09:33.336Z,3.80
2017-10-07T01:11:59.982Z,5.63
2017-10-07T01:14:26.614Z,4.50
2017-10-07T01:16:53.241Z,4.47
2017-10-07T01:19:19.866Z,4.20
2017-10-07T01:21:46.519Z,4.57
2017-10-07T01:24:13.129Z,5.57
2017-10-07T01:26:39.770Z,5.10
2017-10-07T01:29:06.418Z,6.40
2017-10-07T01:31:33.030Z,5.63
2017-10-07T01:33:59.671Z,6.10
2017-10-07T01:36:26.302Z,7.20
2017-10-07T01:38:52.938Z,7.23
2017-10-07T01:41:19.558Z,4.90
2017-10-07T01:43:46.172Z,5.03
2017-10-07T01:46:12.798Z,6.20
2017-10-07T01:48:39.421Z,4.43
2017-10-07T01:51:06.056Z,3.90
2017-10-07T01:53:32.671Z,6.73
2017-10-07T01:55:59.309Z,7.27
2017-10-07T01:58:25.953Z,7.30
2017-10-07T02:00:52.559Z,6.07
2017-10-07T02:03:19.211Z,8.30
2017-10-07T02:05:45.840Z,4.87
2017-10-07T02:08:12.465Z,5.60
2017-10-07T02:10:39.081Z,5.63
2017-10-07T02:13:05.708Z,4.30
2017-10-07T02:15:32.988Z,4.50
2017-10-07T02:17:59.611Z,4.60
2017-10-07T02:20:26.244Z,5.80
2017-10-07T02:22:52.854Z,4.57
2017-10-07T02:25:19.507Z,4.30
2017-10-07T02:27:46.124Z,4.13
2017-10-07T02:30:12.759Z,5.17
2017-10-07T02:32:39.400Z,4.87
2017-10-07T02:35:06.014Z,5.00
2017-10-07T02:37:32.670Z,5.27
2017-10-07T02:39:59.307Z,5.77
2017-10-07T02:42:25.946Z,4.80
2017-10-07T02:44:52.562Z,4.93
2017-10-07T02:47:19.195Z,3.90
2017-10-07T02:49:45.838Z,3.80
2017-10-07T02:52:12.458Z,5.93
2017-10-07T02:54:39.086Z,5.40
2017-10-07T02:57:05.699Z,4.83
2017-10-07T02:59:32.320Z,4.43
2017-10-07T03:01:58.959Z,4.17
2017-10-07T03:04:25.595Z,5.13
2017-10-07T03:06:52.214Z,4.03
2017-10-07T03:09:18.810Z,3.87
2017-10-07T03:11:45.445Z,5.23
2017-10-07T03:14:12.055Z,4.57
2017-10-07T03:16:38.688Z,6.77
2017-10-07T03:19:05.310Z,3.83
2017-10-07T03:21:31.934Z,5.10
2017-10-07T03:23:58.583Z,5.17
2017-10-07T03:26:25.189Z,3.93
2017-10-07T03:28:51.812Z,5.10
2017-10-07T03:31:18.448Z,5.07
2017-10-07T03:33:45.087Z,4.30
2017-10-07T03:36:11.738Z,4.03
2017-10-07T03:38:38.363Z,4.43
2017-10-07T03:41:04.980Z,4.37
2017-10-07T03:43:31.594Z,4.03
2017-10-07T03:45:58.218Z,4.97
2017-10-07T03:48:24.843Z,4.33
2017-10-07T03:50:51.477Z,4.47
2017-10-07T03:53:18.114Z,4.00
2017-10-07T03:55:44.743Z,5.13
2017-10-07T03:58:11.402Z,3.80
2017-10-07T04:00:38.027Z,4.30
2017-10-07T04:03:04.674Z,5.10
2017-10-07T04:05:31.293Z,4.63
2017-10-07T04:07:57.907Z,4.57
2017-10-07T04:10:24.533Z,4.90
2017-10-07T04:12:51.137Z,4.30
2017-10-07T04:15:17.758Z,3.80
2017-10-07T04:17:44.390Z,4.00
2017-10-07T04:20:10.997Z,4.43
2017-10-07T04:22:37.639Z,4.40
2017-10-07T04:25:04.284Z,4.40
2017-10-07T04:27:30.929Z,3.83
2017-10-07T04:29:57.541Z,4.30
2017-10-07T04:32:24.164Z,4.17
2017-10-07T04:34:50.814Z,7.23
2017-10-07T04:37:17.431Z,4.40
2017-10-07T04:39:44.085Z,5.70
2017-10-07T04:42:10.718Z,3.97
2017-10-07T04:44:37.323Z,3.60
2017-10-07T04:47:03.970Z,4.90
2017-10-07T04:49:30.599Z,3.97
2017-10-07T04:51:57.245Z,3.70
2017-10-07T04:54:23.847Z,3.67
2017-10-07T04:56:50.462Z,4.53
2017-10-07T04:59:17.115Z,4.43
2017-10-07T05:01:43.746Z,2.97
2017-10-07T05:04:10.419Z,3.97
2017-10-07T05:06:37.018Z,3.43
2017-10-07T05:09:03.644Z,4.30
2017-10-07T05:11:30.292Z,3.50
2017-10-07T05:13:56.899Z,3.53
2017-10-07T05:16:23.499Z,4.20
2017-10-07T05:18:50.127Z,4.03
2017-10-07T05:21:16.741Z,4.40
2017-10-07T05:23:43.378Z,3.80
2017-10-07T05:26:10.263Z,4.33
2017-10-07T05:28:36.895Z,3.30
2017-10-07T05:31:03.737Z,2.83
2017-10-07T05:33:30.418Z,4.27
2017-10-07T05:35:57.032Z,4.33
2017-10-07T05:38:23.642Z,3.80
2017-10-07T05:40:50.275Z,4.73
2017-10-07T05:43:16.900Z,4.93
2017-10-07T05:45:43.516Z,4.03
2017-10-07T05:48:10.135Z,4.33
2017-10-07T05:50:36.750Z,3.70
2017-10-07T05:53:03.377Z,5.13
2017-10-07T05:55:30.019Z,3.50
2017-10-07T05:57:56.635Z,3.47
2017-10-07T06:00:23.249Z,4.40
2017-10-07T06:02:49.874Z,3.10
2017-10-07T06:05:16.495Z,3.93
2017-10-07T06:07:43.131Z,5.80
2017-10-07T06:10:09.774Z,3.70
2017-10-07T06:12:36.420Z,3.20
2017-10-07T06:15:03.039Z,3.23
2017-10-07T06:17:29.670Z,2.87
2017-10-07T06:19:56.309Z,3.13
2017-10-07T06:22:22.939Z,3.57
2017-10-07T06:24:49.551Z,3.17
2017-10-07T06:27:16.197Z,2.80
2017-10-07T06:29:42.851Z,3.30
2017-10-07T06:32:09.477Z,3.27
2017-10-07T06:34:36.117Z,4.43
2017-10-07T06:37:02.756Z,3.17
2017-10-07T06:39:29.372Z,3.53
2017-10-07T06:41:55.999Z,3.80
2017-10-07T06:44:22.606Z,3.77
2017-10-07T06:46:49.276Z,3.10
2017-10-07T06:49:16.654Z,3.20
2017-10-07T06:51:43.279Z,3.37
2017-10-07T06:54:09.935Z,2.90
2017-10-07T06:56:36.567Z,3.27
2017-10-07T06:59:03.184Z,3.70
2017-10-07T07:01:29.819Z,3.37
2017-10-07T07:03:56.436Z,2.80
2017-10-07T07:06:23.054Z,4.03
2017-10-07T07:08:49.675Z,3.10
2017-10-07T07:11:16.310Z,5.00
2017-10-07T07:13:42.962Z,4.50
2017-10-07T07:16:09.595Z,4.40
2017-10-07T07:18:36.228Z,3.17
2017-10-07T07:21:02.870Z,4.33
2017-10-07T07:23:29.512Z,4.43
2017-10-07T07:25:56.155Z,4.60
2017-10-07T07:28:22.791Z,3.40
2017-10-07T07:30:49.399Z,4.07
2017-10-07T07:33:16.750Z,3.63
2017-10-07T07:35:43.393Z,5.73
2017-10-07T07:38:10.008Z,4.20
2017-10-07T07:40:36.612Z,4.17
2017-10-07T07:43:03.244Z,2.70
2017-10-07T07:45:29.875Z,3.57
2017-10-07T07:47:56.522Z,3.87
2017-10-07T07:50:23.146Z,3.60
2017-10-07T07:52:49.782Z,4.10
2017-10-07T07:55:16.409Z,3.40
2017-10-07T07:57:43.069Z,4.70
2017-10-07T08:00:09.749Z,3.87
2017-10-07T08:02:36.367Z,2.90
2017-10-07T08:05:02.997Z,3.17
2017-10-07T08:07:29.641Z,4.10
2017-10-07T08:09:56.316Z,3.60
2017-10-07T08:12:22.913Z,3.13
2017-10-07T08:14:49.564Z,3.17
2017-10-07T08:17:16.216Z,5.30
2017-10-07T08:19:42.822Z,2.60
2017-10-07T08:22:09.459Z,3.23
2017-10-07T08:24:36.098Z,2.70
2017-10-07T08:27:02.721Z,4.27
2017-10-07T08:29:29.355Z,3.13
2017-10-07T08:31:55.990Z,3.10
2017-10-07T08:34:22.586Z,2.83
2017-10-07T08:36:49.239Z,3.00
2017-10-07T08:39:15.839Z,2.90
2017-10-07T08:41:42.453Z,3.57
2017-10-07T08:44:09.081Z,3.90
2017-10-07T08:46:35.715Z,3.20
2017-10-07T08:49:02.343Z,3.47
2017-10-07T08:51:29.002Z,4.47
2017-10-07T08:53:55.607Z,4.53
2017-10-07T08:56:22.230Z,2.97
2017-10-07T08:58:48.842Z,2.63
2017-10-07T09:01:15.446Z,4.00
2017-10-07T09:03:42.112Z,3.00
2017-10-07T09:06:08.759Z,5.27
2017-10-07T09:08:35.408Z,3.40
2017-10-07T09:11:02.054Z,2.87
2017-10-07T09:13:28.670Z,2.00
2017-10-07T09:15:55.315Z,3.60
2017-10-07T09:18:21.955Z,3.50
2017-10-07T09:20:48.575Z,4.60
2017-10-07T09:23:15.191Z,1.90
2017-10-07T09:25:41.832Z,2.33
2017-10-07T09:28:08.440Z,2.40
2017-10-07T09:30:35.076Z,2.90
2017-10-07T09:33:01.703Z,2.20
2017-10-07T09:35:28.365Z,3.50
2017-10-07T09:37:54.992Z,2.80
2017-10-07T09:40:21.609Z,2.80
2017-10-07T09:42:48.276Z,3.10
2017-10-07T09:45:14.896Z,2.60
2017-10-07T09:47:41.507Z,2.70
2017-10-07T09:50:08.155Z,3.73
2017-10-07T09:52:34.767Z,2.60
2017-10-07T09:55:01.469Z,3.73
2017-10-07T09:57:28.086Z,2.80
2017-10-07T09:59:54.733Z,2.83
2017-10-07T10:02:21.347Z,2.80
2017-10-07T10:04:47.978Z,2.80
2017-10-07T10:07:14.616Z,3.20
2017-10-07T10:09:41.221Z,2.73
2017-10-07T10:12:07.862Z,2.63
2017-10-07T10:14:34.501Z,2.30
2017-10-07T10:17:01.153Z,2.40
2017-10-07T10:19:27.775Z,4.00
2017-10-07T10:21:54.391Z,2.73
2017-10-07T10:24:21.019Z,2.37
2017-10-07T10:26:47.670Z,3.00
2017-10-07T10:29:14.290Z,2.60
2017-10-07T10:31:40.932Z,3.27
2017-10-07T10:34:07.571Z,2.77
2017-10-07T10:36:34.229Z,3.50
2017-10-07T10:39:00.850Z,3.40
2017-10-07T10:41:27.466Z,3.70
2017-10-07T10:43:54.133Z,3.70
2017-10-07T10:46:20.775Z,3.00
2017-10-07T10:48:47.386Z,3.70
2017-10-07T10:51:14.019Z,4.00
2017-10-07T10:53:40.625Z,3.40
2017-10-07T10:56:07.284Z,3.47
2017-10-07T10:58:33.949Z,4.30
2017-10-07T11:01:00.564Z,3.97
2017-10-07T11:03:27.191Z,4.63
2017-10-07T11:05:53.810Z,3.23
2017-10-07T11:08:20.430Z,4.80
2017-10-07T11:10:47.071Z,4.00
2017-10-07T11:13:13.699Z,4.07
2017-10-07T11:15:40.334Z,3.87
2017-10-07T11:18:06.990Z,4.50
2017-10-07T11:20:33.632Z,4.70
2017-10-07T11:23:00.259Z,4.20
2017-10-07T11:25:26.878Z,5.13
2017-10-07T11:27:53.516Z,4.10
2017-10-07T11:30:20.156Z,4.23
2017-10-07T11:32:46.751Z,3.90
2017-10-07T11:35:13.397Z,4.00
2017-10-07T11:37:40.003Z,4.93
2017-10-07T11:40:06.643Z,5.30
2017-10-07T11:42:33.290Z,6.17
2017-10-07T11:44:59.924Z,4.10
2017-10-07T11:47:26.577Z,5.68
2017-10-07T11:49:53.193Z,4.77
2017-10-07T11:52:19.829Z,5.00
2017-10-07T11:54:46.462Z,5.10
2017-10-07T11:57:13.083Z,5.90
2017-10-07T11:59:39.703Z,4.97
2017-10-07T12:02:06.366Z,5.10
2017-10-07T12:04:32.979Z,6.00
2017-10-07T12:06:59.613Z,4.73
2017-10-07T12:09:26.255Z,5.90
2017-10-07T12:11:52.879Z,5.60
2017-10-07T12:14:19.549Z,5.17
2017-10-07T12:16:46.215Z,4.80
2017-10-07T12:19:12.856Z,5.40
2017-10-07T12:21:39.467Z,5.73
2017-10-07T12:24:06.119Z,5.45
2017-10-07T12:26:32.780Z,4.57
2017-10-07T12:28:59.410Z,3.97
2017-10-07T12:31:26.059Z,4.53
2017-10-07T12:33:52.672Z,5.20
2017-10-07T12:36:19.305Z,5.00
2017-10-07T12:38:45.963Z,5.20
2017-10-07T12:41:12.594Z,4.60
2017-10-07T12:43:39.260Z,5.95
2017-10-07T12:46:05.887Z,5.03
2017-10-07T12:48:32.527Z,5.37
2017-10-07T12:50:59.134Z,4.67
2017-10-07T12:53:25.765Z,3.80
2017-10-07T12:55:52.395Z,5.90
2017-10-07T12:58:19.025Z,4.30
2017-10-07T13:00:45.682Z,5.00
2017-10-07T13:03:12.338Z,5.47
2017-10-07T13:05:38.991Z,5.40
2017-10-07T13:08:05.597Z,4.50
2017-10-07T13:10:32.215Z,4.10
2017-10-07T13:12:58.854Z,3.93
2017-10-07T13:15:25.472Z,4.13
2017-10-07T13:17:52.143Z,3.53
2017-10-07T13:20:18.734Z,3.80
2017-10-07T13:22:45.392Z,5.80
2017-10-07T13:25:12.028Z,4.10
2017-10-07T13:27:38.645Z,3.60
2017-10-07T13:30:05.302Z,3.60
2017-10-07T13:32:31.927Z,4.70
2017-10-07T13:34:58.563Z,3.63
2017-10-07T13:37:25.193Z,4.27
2017-10-07T13:39:51.846Z,3.90
2017-10-07T13:42:18.460Z,4.03
2017-10-07T13:44:45.101Z,4.10
2017-10-07T13:47:11.754Z,4.57
2017-10-07T13:49:38.361Z,3.57
2017-10-07T13:52:04.995Z,4.57
2017-10-07T13:54:31.616Z,3.70
2017-10-07T13:56:58.236Z,3.83
2017-10-07T13:59:24.886Z,4.73
2017-10-07T14:01:51.520Z,5.07
2017-10-07T14:04:18.152Z,4.63
2017-10-07T14:06:44.791Z,4.57
2017-10-07T14:09:11.423Z,5.37
2017-10-07T14:11:38.094Z,5.83
2017-10-07T14:14:04.738Z,4.93
2017-10-07T14:16:31.350Z,4.90
2017-10-07T14:18:58.005Z,4.40
2017-10-07T14:21:24.645Z,4.60
2017-10-07T14:23:51.287Z,4.47
2017-10-07T14:26:17.938Z,4.17
2017-10-07T14:28:44.586Z,6.00
2017-10-07T14:31:11.215Z,4.57
2017-10-07T14:33:37.822Z,3.83
2017-10-07T14:36:04.476Z,4.33
2017-10-07T14:38:31.098Z,5.37
2017-10-07T14:40:57.715Z,4.17
2017-10-07T14:43:24.388Z,4.60
2017-10-07T14:45:51.006Z,5.10
2017-10-07T14:48:17.645Z,5.30
2017-10-07T14:50:44.254Z,5.40
2017-10-07T14:53:10.887Z,6.10
2017-10-07T14:55:37.518Z,6.57
2017-10-07T14:58:04.124Z,5.00
2017-10-07T15:00:30.766Z,5.87
2017-10-07T15:02:57.390Z,6.13
2017-10-07T15:05:24.021Z,5.23
2017-10-07T15:07:50.645Z,6.70
2017-10-07T15:10:17.257Z,6.40
2017-10-07T15:12:43.892Z,6.70
2017-10-07T15:15:10.514Z,6.20
2017-10-07T15:17:37.139Z,8.20
2017-10-07T15:20:03.788Z,7.20
2017-10-07T15:22:30.431Z,6.10
2017-10-07T15:24:57.058Z,5.93
2017-10-07T15:27:23.706Z,6.43
2017-10-07T15:29:50.346Z,5.83
2017-10-07T15:32:16.972Z,6.53
2017-10-07T15:34:43.618Z,7.20
2017-10-07T15:37:10.243Z,5.60
2017-10-07T15:39:36.859Z,5.50
2017-10-07T15:42:03.527Z,5.50
2017-10-07T15:44:30.156Z,6.33
2017-10-07T15:46:56.827Z,5.13
2017-10-07T15:49:23.471Z,5.23
2017-10-07T15:51:50.108Z,6.40
2017-10-07T15:54:16.715Z,5.50
2017-10-07T15:56:43.354Z,6.13
2017-10-07T15:59:10.004Z,8.10
2017-10-07T16:01:36.623Z,6.00
2017-10-07T16:04:03.281Z,6.60
2017-10-07T16:06:29.878Z,7.17
2017-10-07T16:08:56.508Z,8.00
2017-10-07T16:11:23.176Z,8.83
2017-10-07T16:13:49.797Z,7.27
2017-10-07T16:16:16.469Z,7.40
2017-10-07T16:18:43.091Z,7.17
2017-10-07T16:21:09.737Z,7.17
2017-10-07T16:23:36.425Z,6.30
2017-10-07T16:26:03.067Z,6.60
2017-10-07T16:28:29.694Z,6.47
2017-10-07T16:30:56.350Z,6.17
2017-10-07T16:33:23.008Z,6.20
2017-10-07T16:35:49.649Z,5.90
2017-10-07T16:38:16.256Z,6.00
2017-10-07T16:40:42.898Z,6.77
2017-10-07T16:43:09.536Z,8.10
2017-10-07T16:45:36.190Z,7.63
2017-10-07T16:48:02.796Z,7.40
2017-10-07T16:50:29.437Z,7.53
2017-10-07T16:52:56.070Z,7.40
2017-10-07T16:55:22.695Z,7.90
2017-10-07T16:57:49.340Z,7.70
2017-10-07T17:00:15.967Z,8.27
2017-10-07T17:02:42.591Z,8.07
2017-10-07T17:05:09.255Z,7.67
2017-10-07T17:07:35.906Z,7.40
2017-10-07T17:10:02.555Z,6.53
2017-10-07T17:12:29.192Z,7.27
2017-10-07T17:14:55.839Z,6.30
2017-10-07T17:17:22.460Z,6.57
2017-10-07T17:19:49.111Z,6.87
2017-10-07T17:22:15.739Z,7.20
2017-10-07T17:24:42.417Z,9.03
2017-10-07T17:27:09.038Z,7.93
2017-10-07T17:29:35.667Z,7.90
2017-10-07T17:32:02.293Z,8.17
2017-10-07T17:34:28.946Z,7.83
2017-10-07T17:36:55.595Z,8.37
2017-10-07T17:39:22.346Z,8.97
2017-10-07T17:41:49.275Z,9.85
2017-10-07T17:44:15.917Z,9.70
2017-10-07T17:46:42.537Z,8.50
2017-10-07T17:49:09.179Z,7.93
2017-10-07T17:51:35.796Z,9.80
2017-10-07T17:54:02.486Z,10.77
2017-10-07T17:56:29.167Z,9.90
2017-10-07T17:58:55.831Z,9.30
2017-10-07T18:01:22.831Z,8.80
2017-10-07T18:03:49.454Z,10.17
2017-10-07T18:06:16.116Z,9.43
2017-10-07T18:08:42.754Z,8.90
2017-10-07T18:11:09.394Z,8.73
2017-10-07T18:13:36.038Z,7.93
2017-10-07T18:16:02.659Z,8.97
2017-10-07T18:18:29.300Z,8.23
2017-10-07T18:20:55.945Z,9.03
2017-10-07T18:23:22.591Z,10.00
2017-10-07T18:25:49.244Z,9.13
2017-10-07T18:28:15.868Z,8.30
2017-10-07T18:30:42.546Z,8.90
2017-10-07T18:33:09.189Z,9.10
2017-10-07T18:35:35.823Z,9.33
2017-10-07T18:38:02.492Z,9.87
2017-10-07T18:40:29.149Z,10.80
2017-10-07T18:42:55.821Z,9.53
2017-10-07T18:45:23.158Z,10.80
2017-10-07T18:47:49.814Z,10.10
2017-10-07T18:50:16.478Z,12.03
2017-10-07T18:52:43.137Z,10.90
2017-10-07T18:55:09.811Z,11.10
2017-10-07T18:57:36.481Z,11.23
2017-10-07T19:00:03.124Z,11.80
2017-10-07T19:02:29.788Z,11.93
2017-10-07T19:04:56.415Z,11.87
2017-10-07T19:07:23.055Z,11.47
2017-10-07T19:09:49.719Z,10.77
2017-10-07T19:12:16.592Z,10.10
2017-10-07T19:14:43.490Z,9.60
2017-10-07T19:17:10.321Z,10.30
2017-10-07T19:19:37.056Z,10.17
2017-10-07T19:22:03.967Z,9.57
2017-10-07T19:24:30.673Z,8.13
2017-10-07T19:26:57.495Z,8.90
2017-10-07T19:29:24.174Z,8.20
2017-10-07T19:31:50.955Z,7.53
2017-10-07T19:34:17.590Z,8.80
2017-10-07T19:36:44.277Z,9.20
2017-10-07T19:39:11.038Z,7.50
2017-10-07T19:41:37.687Z,8.70
2017-10-07T19:44:04.511Z,9.40
2017-10-07T19:46:31.299Z,7.37
2017-10-07T19:48:57.968Z,8.27
2017-10-07T19:51:25.048Z,8.40
2017-10-07T19:53:51.786Z,8.27
2017-10-07T19:56:18.533Z,8.50
2017-10-07T19:58:45.328Z,7.13
2017-10-07T20:01:12.003Z,8.90
2017-10-07T20:03:38.627Z,7.30
2017-10-07T20:06:05.316Z,8.40
2017-10-07T20:08:31.947Z,7.53
2017-10-07T20:10:58.572Z,6.90
2017-10-07T20:13:25.245Z,8.90
2017-10-07T20:15:51.872Z,9.30
2017-10-07T20:18:18.495Z,8.30
2017-10-07T20:20:45.148Z,9.03
2017-10-07T20:23:11.739Z,8.17
2017-10-07T20:25:38.358Z,8.90
2017-10-07T20:28:05.008Z,9.60
2017-10-07T20:30:31.660Z,9.40
2017-10-07T20:32:58.283Z,8.93
2017-10-07T20:35:24.904Z,9.30
2017-10-07T20:37:51.538Z,8.70
2017-10-07T20:40:18.199Z,9.37
2017-10-07T20:42:44.824Z,11.00
2017-10-07T20:45:11.478Z,9.70
2017-10-07T20:47:38.129Z,10.10
2017-10-07T20:50:04.802Z,10.23
2017-10-07T20:52:31.411Z,9.23
2017-10-07T20:54:58.035Z,10.37
2017-10-07T20:57:24.660Z,9.23
2017-10-07T20:59:51.299Z,9.83
2017-10-07T21:02:17.929Z,8.70
2017-10-07T21:04:44.565Z,11.97
2017-10-07T21:07:11.190Z,10.10
2017-10-07T21:09:37.832Z,11.67
2017-10-07T21:12:04.467Z,10.07
2017-10-07T21:14:31.078Z,9.60
2017-10-07T21:16:58.644Z,10.70
2017-10-07T21:19:25.290Z,10.90
2017-10-07T21:21:51.947Z,12.10
2017-10-07T21:24:18.608Z,10.17
2017-10-07T21:26:45.249Z,11.53
2017-10-07T21:29:11.858Z,11.73
2017-10-07T21:31:38.522Z,12.50
2017-10-07T21:34:05.153Z,12.17
2017-10-07T21:36:32.086Z,14.67
2017-10-07T21:38:58.736Z,14.30
2017-10-07T21:41:25.358Z,12.70
2017-10-07T21:43:51.995Z,12.83
2017-10-07T21:46:18.615Z,13.73
2017-10-07T21:48:45.266Z,12.77
2017-10-07T21:51:11.903Z,13.83
2017-10-07T21:53:38.543Z,12.70
2017-10-07T21:56:05.189Z,13.80
2017-10-07T21:58:31.806Z,12.77
2017-10-07T22:00:58.448Z,15.17
2017-10-07T22:03:25.121Z,15.10
2017-10-07T22:05:51.752Z,13.70
2017-10-07T22:08:18.398Z,14.80
2017-10-07T22:10:45.051Z,14.50
2017-10-07T22:13:11.730Z,14.10
2017-10-07T22:15:38.340Z,16.67
2017-10-07T22:18:04.970Z,14.30
2017-10-07T22:20:31.616Z,14.70
2017-10-07T22:22:58.227Z,15.47
2017-10-07T22:25:24.884Z,16.30
2017-10-07T22:27:51.498Z,15.57
2017-10-07T22:30:18.124Z,16.30
2017-10-07T22:32:44.773Z,17.33
2017-10-07T22:35:11.428Z,15.40
2017-10-07T22:37:38.047Z,14.47
2017-10-07T22:40:04.696Z,17.20
2017-10-07T22:42:31.327Z,14.67
2017-10-07T22:44:57.987Z,16.23
2017-10-07T22:47:24.612Z,16.70
2017-10-07T22:49:51.259Z,16.50
2017-10-07T22:52:17.878Z,14.43
2017-10-07T22:54:44.521Z,14.90
2017-10-07T22:57:11.154Z,13.60
2017-10-07T22:59:37.784Z,15.70
2017-10-07T23:02:04.443Z,13.07
2017-10-07T23:04:31.099Z,14.70
2017-10-07T23:06:57.710Z,14.27
2017-10-07T23:09:24.673Z,13.30
2017-10-07T23:11:51.291Z,14.80
2017-10-07T23:14:17.912Z,15.20
2017-10-07T23:16:44.581Z,14.70
2017-10-07T23:19:11.195Z,14.73
2017-10-07T23:21:37.844Z,14.83
2017-10-07T23:24:04.500Z,14.73
2017-10-07T23:26:31.134Z,14.90
2017-10-07T23:28:57.774Z,14.17
2017-10-07T23:31:24.382Z,13.07
2017-10-07T23:33:51.025Z,13.97
2017-10-07T23:36:17.667Z,13.60
2017-10-07T23:38:44.314Z,15.43
2017-10-07T23:41:10.947Z,15.10
2017-10-07T23:43:37.630Z,16.43
2017-10-07T23:46:04.238Z,15.57
2017-10-07T23:48:30.860Z,15.90
2017-10-07T23:50:57.489Z,15.13
2017-10-07T23:53:24.107Z,16.40
2017-10-07T23:55:50.782Z,17.33
2017-10-07T23:58:17.407Z,16.37
